Time;durP1;ratioP1;P1;durP2;ratioP2;P2;SDS_P1;SDS_P2;PMS_P1;PMS_P2;Temp;Humidity;BMP_temperature;BMP_pressure;BME280_temperature;BME280_humidity;BME280_pressure;Samples;Min_cycle;Max_cycle;Signal;HPM_P1;HPM_P2
2023/08/25 00:01:48;;;;;;;2.25;2.25;;;;;;;;;;10407793;28;20319;-75
2023/08/25 00:06:49;;;;;;;2.08;1.98;;;;;;;;;;10390467;28;20217;-76
2023/08/25 00:11:50;;;;;;;2.50;2.40;;;;;;;;;;10392051;28;20226;-76
2023/08/25 00:16:51;;;;;;;2.42;2.33;;;;;;;;;;10392294;28;20262;-76
2023/08/25 00:21:53;;;;;;;2.55;2.35;;;;;;;;;;10383337;28;20215;-76
2023/08/25 00:26:54;;;;;;;3.03;2.92;;;;;;;;;;10403968;28;20653;-75
2023/08/25 00:31:55;;;;;;;2.50;2.40;;;;;;;;;;10407341;28;21488;-76
2023/08/25 00:36:56;;;;;;;3.03;2.90;;;;;;;;;;10392853;28;20283;-76
2023/08/25 00:41:57;;;;;;;2.67;2.45;;;;;;;;;;10389611;28;20233;-76
2023/08/25 00:46:59;;;;;;;2.83;2.67;;;;;;;;;;10400626;28;21003;-76
2023/08/25 00:52:02;;;;;;;2.88;2.58;;;;;;;;;;10408034;28;20303;-76
2023/08/25 00:57:03;;;;;;;2.92;2.50;;;;;;;;;;10407791;28;20215;-76
2023/08/25 01:02:04;;;;;;;2.67;2.47;;;;;;;;;;10407159;28;20222;-75
2023/08/25 01:07:06;;;;;;;3.08;2.88;;;;;;;;;;10408701;28;20241;-76
2023/08/25 01:12:12;;;;;;;2.67;2.47;;;;;;;;;;10388506;28;20239;-77
2023/08/25 01:17:18;;;;;;;2.75;2.65;;;;;;;;;;10402675;28;20250;-76
2023/08/25 01:22:31;;;;;;;2.45;2.25;;;;;;;;;;10402075;28;20226;-76
2023/08/25 01:27:32;;;;;;;2.30;2.15;;;;;;;;;;10404278;28;20218;-76
2023/08/25 01:32:37;;;;;;;3.03;2.83;;;;;;;;;;10408878;28;20340;-76
2023/08/25 01:37:51;;;;;;;5.55;3.08;;;;;;;;;;10403443;28;20246;-75
2023/08/25 01:42:54;;;;;;;2.83;2.72;;;;;;;;;;10401740;28;20218;-76
2023/08/25 01:47:56;;;;;;;3.55;3.33;;;;;;;;;;10396430;28;20225;-75
2023/08/25 01:52:58;;;;;;;2.92;2.78;;;;;;;;;;10390638;28;20277;-75
2023/08/25 01:57:59;;;;;;;2.60;2.50;;;;;;;;;;10417439;28;20710;-76
2023/08/25 02:03:00;;;;;;;3.17;2.97;;;;;;;;;;10410225;28;20724;-76
2023/08/25 02:08:02;;;;;;;2.88;2.67;;;;;;;;;;10403797;28;20592;-76
2023/08/25 02:13:04;;;;;;;3.50;3.15;;;;;;;;;;10414514;28;21663;-76
2023/08/25 02:18:05;;;;;;;3.20;2.97;;;;;;;;;;10420290;28;20269;-75
2023/08/25 02:23:07;;;;;;;4.63;3.03;;;;;;;;;;10395435;28;20753;-75
2023/08/25 02:28:08;;;;;;;3.88;3.10;;;;;;;;;;10397138;28;20213;-76
2023/08/25 02:33:10;;;;;;;3.17;3.08;;;;;;;;;;10402379;28;20330;-75
2023/08/25 02:38:12;;;;;;;2.78;2.58;;;;;;;;;;10413873;28;20234;-75
2023/08/25 02:43:13;;;;;;;2.85;2.72;;;;;;;;;;10410141;28;20222;-75
2023/08/25 02:48:14;;;;;;;8.93;3.05;;;;;;;;;;10412433;28;20215;-76
2023/08/25 02:53:15;;;;;;;2.72;2.63;;;;;;;;;;10402790;28;20215;-76
2023/08/25 02:58:17;;;;;;;2.55;2.35;;;;;;;;;;10411705;28;20272;-76
2023/08/25 03:03:19;;;;;;;2.30;2.30;;;;;;;;;;10392954;28;21048;-75
2023/08/25 03:08:23;;;;;;;5.20;2.67;;;;;;;;;;10403180;28;20301;-75
2023/08/25 03:13:24;;;;;;;3.20;2.40;;;;;;;;;;10403609;28;20219;-76
2023/08/25 03:18:25;;;;;;;2.85;2.75;;;;;;;;;;10397074;28;20230;-76
2023/08/25 03:23:27;;;;;;;2.30;2.20;;;;;;;;;;10393099;28;22150;-76
2023/08/25 03:28:28;;;;;;;2.13;2.13;;;;;;;;;;10395895;28;20344;-76
2023/08/25 03:33:29;;;;;;;3.83;3.53;;;;;;;;;;10415675;28;20246;-75
2023/08/25 03:38:30;;;;;;;3.92;3.45;;;;;;;;;;10394361;28;20226;-75
2023/08/25 03:43:31;;;;;;;2.88;2.70;;;;;;;;;;10412365;28;20214;-76
2023/08/25 03:48:32;;;;;;;3.63;2.80;;;;;;;;;;10410389;28;20221;-75
2023/08/25 03:53:34;;;;;;;3.50;3.30;;;;;;;;;;10408539;28;20771;-74
2023/08/25 03:58:35;;;;;;;7.88;3.90;;;;;;;;;;10417551;28;20223;-76
2023/08/25 04:03:37;;;;;;;3.80;3.45;;;;;;;;;;10414896;28;20222;-75
2023/08/25 04:08:38;;;;;;;4.07;3.88;;;;;;;;;;10402538;28;20873;-74
2023/08/25 04:13:39;;;;;;;3.22;3.10;;;;;;;;;;10413874;28;20215;-74
2023/08/25 04:18:40;;;;;;;4.05;3.72;;;;;;;;;;10414715;28;20299;-74
2023/08/25 04:23:41;;;;;;;3.85;3.65;;;;;;;;;;10416736;28;21003;-75
2023/08/25 04:28:43;;;;;;;6.18;3.50;;;;;;;;;;10417966;28;20326;-75
2023/08/25 04:33:44;;;;;;;3.60;3.40;;;;;;;;;;10411741;28;20210;-74
2023/08/25 04:38:45;;;;;;;3.17;2.80;;;;;;;;;;10411985;28;20218;-77
2023/08/25 04:43:47;;;;;;;3.35;3.25;;;;;;;;;;10403587;28;20207;-74
2023/08/25 04:48:49;;;;;;;3.63;3.33;;;;;;;;;;10399905;28;20225;-77
2023/08/25 04:53:50;;;;;;;4.13;3.83;;;;;;;;;;10411580;28;20227;-75
2023/08/25 04:58:52;;;;;;;3.38;3.17;;;;;;;;;;10396089;28;20257;-74
2023/08/25 05:03:55;;;;;;;4.18;3.80;;;;;;;;;;10403088;28;20222;-74
2023/08/25 05:08:56;;;;;;;3.88;3.67;;;;;;;;;;10394718;28;20218;-72
2023/08/25 05:13:57;;;;;;;3.80;3.58;;;;;;;;;;10409005;28;20234;-75
2023/08/25 05:18:59;;;;;;;3.63;3.40;;;;;;;;;;10388102;28;20238;-74
2023/08/25 05:24:20;;;;;;;4.45;4.25;;;;;;;;;;10389970;28;20223;-75
2023/08/25 05:29:22;;;;;;;4.00;3.70;;;;;;;;;;10413934;28;20214;-77
2023/08/25 05:34:23;;;;;;;13.70;4.60;;;;;;;;;;10401618;28;20215;-74
2023/08/25 05:39:27;;;;;;;5.95;5.22;;;;;;;;;;10402713;28;20658;-74
2023/08/25 05:44:28;;;;;;;5.55;5.15;;;;;;;;;;10413186;28;20711;-75
2023/08/25 05:49:29;;;;;;;5.78;5.28;;;;;;;;;;10408310;28;20221;-75
2023/08/25 05:54:30;;;;;;;5.95;5.30;;;;;;;;;;10402223;28;20798;-75
2023/08/25 05:59:34;;;;;;;5.72;5.20;;;;;;;;;;10390418;28;20671;-77
2023/08/25 06:04:35;;;;;;;6.15;5.65;;;;;;;;;;10406574;28;20854;-76
2023/08/25 06:09:36;;;;;;;5.53;5.15;;;;;;;;;;10404003;28;20218;-76
2023/08/25 06:14:40;;;;;;;4.72;4.38;;;;;;;;;;10407192;28;20231;-76
2023/08/25 06:19:43;;;;;;;4.47;4.22;;;;;;;;;;10391960;28;20215;-74
2023/08/25 06:24:44;;;;;;;5.38;4.00;;;;;;;;;;10411114;28;20594;-76
2023/08/25 06:29:45;;;;;;;4.60;4.18;;;;;;;;;;10391526;28;20203;-75
2023/08/25 06:34:51;;;;;;;6.25;3.53;;;;;;;;;;10397659;28;20225;-76
2023/08/25 06:39:52;;;;;;;2.88;2.67;;;;;;;;;;10411589;28;20223;-76
2023/08/25 06:44:53;;;;;;;2.95;2.85;;;;;;;;;;10412708;28;20215;-76
2023/08/25 06:49:55;;;;;;;3.08;2.42;;;;;;;;;;10404386;28;20340;-76
2023/08/25 06:54:56;;;;;;;4.78;2.50;;;;;;;;;;10409224;28;20210;-75
2023/08/25 06:59:57;;;;;;;1.67;1.58;;;;;;;;;;10406308;28;20210;-76
2023/08/25 07:04:58;;;;;;;1.05;0.95;;;;;;;;;;10422993;28;20760;-74
2023/08/25 07:09:59;;;;;;;1.52;1.17;;;;;;;;;;10426687;28;20223;-75
2023/08/25 07:15:01;;;;;;;1.35;1.30;;;;;;;;;;10414461;28;20297;-75
2023/08/25 07:20:04;;;;;;;2.38;0.73;;;;;;;;;;10398260;28;20588;-74
2023/08/25 07:25:05;;;;;;;1.25;0.70;;;;;;;;;;10397980;28;20598;-75
2023/08/25 07:30:07;;;;;;;1.45;0.93;;;;;;;;;;10414241;28;20191;-79
2023/08/25 07:35:08;;;;;;;1.65;0.90;;;;;;;;;;10407567;28;20214;-78
2023/08/25 07:40:10;;;;;;;2.13;1.10;;;;;;;;;;10416645;28;20190;-76
2023/08/25 07:45:11;;;;;;;1.30;0.60;;;;;;;;;;10409611;28;20211;-78
2023/08/25 07:50:12;;;;;;;0.70;0.70;;;;;;;;;;10419923;28;20206;-76
2023/08/25 07:55:13;;;;;;;1.70;0.80;;;;;;;;;;10393571;28;20198;-75
2023/08/25 08:00:18;;;;;;;0.65;0.65;;;;;;;;;;10420413;28;20248;-77
2023/08/25 08:05:19;;;;;;;0.80;0.80;;;;;;;;;;10418342;28;20219;-75
2023/08/25 08:10:24;;;;;;;0.52;0.52;;;;;;;;;;10408225;28;20213;-75
2023/08/25 08:15:25;;;;;;;0.57;0.57;;;;;;;;;;10395698;28;20223;-76
2023/08/25 08:20:27;;;;;;;3.28;0.88;;;;;;;;;;10392546;28;20242;-77
2023/08/25 08:25:30;;;;;;;1.02;0.93;;;;;;;;;;10412000;28;20230;-77
2023/08/25 08:30:31;;;;;;;3.25;0.80;;;;;;;;;;10400918;28;20245;-78
2023/08/25 08:35:32;;;;;;;7.43;0.88;;;;;;;;;;10394506;28;20232;-78
2023/08/25 08:40:33;;;;;;;1.23;0.60;;;;;;;;;;10413019;28;20234;-78
2023/08/25 08:45:35;;;;;;;0.60;0.60;;;;;;;;;;10414128;28;20234;-77
2023/08/25 08:50:37;;;;;;;1.50;0.80;;;;;;;;;;10410624;28;20224;-75
2023/08/25 08:55:38;;;;;;;0.73;0.73;;;;;;;;;;10402580;28;20226;-77
2023/08/25 09:00:40;;;;;;;0.75;0.68;;;;;;;;;;10400932;28;20219;-77
2023/08/25 09:05:42;;;;;;;1.27;0.98;;;;;;;;;;10400618;28;20233;-77
2023/08/25 09:10:43;;;;;;;2.47;1.10;;;;;;;;;;10410580;28;20229;-77
2023/08/25 09:15:44;;;;;;;1.00;1.00;;;;;;;;;;10393008;28;20222;-76
2023/08/25 09:20:45;;;;;;;2.47;0.90;;;;;;;;;;10399712;28;20246;-76
2023/08/25 09:25:48;;;;;;;1.08;1.00;;;;;;;;;;10407548;28;20482;-77
2023/08/25 09:30:49;;;;;;;3.03;1.83;;;;;;;;;;10415286;28;20322;-77
2023/08/25 09:35:50;;;;;;;1.52;1.13;;;;;;;;;;10410657;28;20215;-77
2023/08/25 09:40:51;;;;;;;0.93;0.93;;;;;;;;;;10415695;28;20228;-77
2023/08/25 09:45:53;;;;;;;1.63;1.52;;;;;;;;;;10422711;28;20623;-78
2023/08/25 09:50:54;;;;;;;2.05;1.95;;;;;;;;;;10422181;28;20234;-77
2023/08/25 09:56:00;;;;;;;2.60;2.35;;;;;;;;;;10426886;28;20223;-77
2023/08/25 10:01:01;;;;;;;1.88;1.35;;;;;;;;;;10418115;28;20237;-77
2023/08/25 10:06:03;;;;;;;2.63;2.42;;;;;;;;;;10408031;28;20219;-78
2023/08/25 10:11:04;;;;;;;2.25;2.13;;;;;;;;;;10413506;28;20358;-79
2023/08/25 10:16:06;;;;;;;1.25;1.15;;;;;;;;;;10420825;28;20499;-77
2023/08/25 10:21:08;;;;;;;1.35;1.35;;;;;;;;;;10425936;28;20207;-78
2023/08/25 10:26:10;;;;;;;1.45;1.35;;;;;;;;;;10398575;28;20227;-76
2023/08/25 10:31:12;;;;;;;1.40;1.40;;;;;;;;;;10408116;28;20320;-78
2023/08/25 10:36:17;;;;;;;2.00;1.90;;;;;;;;;;10418633;28;20731;-76
2023/08/25 10:41:20;;;;;;;1.65;1.50;;;;;;;;;;10405645;28;20207;-76
2023/08/25 10:46:22;;;;;;;1.65;1.60;;;;;;;;;;10403759;28;20233;-77
2023/08/25 10:51:27;;;;;;;3.97;3.58;;;;;;;;;;10396175;28;20215;-77
2023/08/25 10:56:28;;;;;;;2.65;2.45;;;;;;;;;;10414690;28;20612;-78
2023/08/25 11:01:35;;;;;;;5.82;1.83;;;;;;;;;;10423906;28;20210;-76
2023/08/25 11:06:40;;;;;;;2.20;2.00;;;;;;;;;;10421891;28;20214;-78
2023/08/25 11:11:42;;;;;;;1.58;1.50;;;;;;;;;;10418083;28;20215;-77
2023/08/25 11:16:43;;;;;;;1.08;1.08;;;;;;;;;;10414383;28;20224;-77
2023/08/25 11:21:44;;;;;;;1.80;1.70;;;;;;;;;;10399914;28;20219;-77
2023/08/25 11:26:45;;;;;;;1.35;1.25;;;;;;;;;;10414925;28;20226;-77
2023/08/25 11:31:46;;;;;;;1.95;1.85;;;;;;;;;;10390881;28;20301;-78
2023/08/25 11:36:47;;;;;;;1.25;1.23;;;;;;;;;;10410358;28;20222;-78
2023/08/25 11:41:52;;;;;;;1.85;1.75;;;;;;;;;;10395635;28;20252;-76
2023/08/25 11:46:54;;;;;;;2.47;1.67;;;;;;;;;;10416438;28;20220;-75
2023/08/25 11:51:55;;;;;;;1.27;1.27;;;;;;;;;;10407649;28;20215;-77
2023/08/25 11:56:56;;;;;;;1.65;1.17;;;;;;;;;;10412971;28;20223;-75
2023/08/25 12:02:01;;;;;;;2.55;1.45;;;;;;;;;;10394229;28;20794;-76
2023/08/25 12:07:02;;;;;;;1.35;1.02;;;;;;;;;;10412957;28;20608;-76
2023/08/25 12:12:03;;;;;;;1.30;1.30;;;;;;;;;;10411167;28;20223;-77
2023/08/25 12:17:04;;;;;;;1.75;1.40;;;;;;;;;;10411524;28;20984;-77
2023/08/25 12:22:05;;;;;;;1.45;1.35;;;;;;;;;;10399426;28;20326;-76
2023/08/25 12:27:07;;;;;;;1.52;1.50;;;;;;;;;;10396803;28;20628;-77
2023/08/25 12:32:08;;;;;;;11.00;1.80;;;;;;;;;;10415206;28;20257;-76
2023/08/25 12:37:09;;;;;;;1.55;1.45;;;;;;;;;;10415527;28;20215;-76
2023/08/25 12:42:10;;;;;;;1.65;1.55;;;;;;;;;;10421232;28;20222;-76
2023/08/25 12:47:11;;;;;;;2.53;1.25;;;;;;;;;;10401930;28;20231;-76
2023/08/25 12:52:16;;;;;;;2.13;1.38;;;;;;;;;;10405867;28;20215;-77
2023/08/25 12:57:17;;;;;;;1.58;1.55;;;;;;;;;;10410362;28;20333;-77
2023/08/25 13:02:18;;;;;;;3.90;1.80;;;;;;;;;;10410617;28;20625;-79
2023/08/25 13:07:20;;;;;;;1.73;1.38;;;;;;;;;;10412485;28;20234;-75
2023/08/25 13:12:21;;;;;;;1.70;1.65;;;;;;;;;;10414938;28;20264;-77
2023/08/25 13:17:22;;;;;;;1.23;1.23;;;;;;;;;;10416652;28;20222;-77
2023/08/25 13:22:23;;;;;;;1.02;0.98;;;;;;;;;;10418553;28;20702;-76
2023/08/25 13:27:24;;;;;;;0.60;0.60;;;;;;;;;;10400451;28;20333;-77
2023/08/25 13:32:25;;;;;;;1.02;0.60;;;;;;;;;;10409749;28;20229;-76
2023/08/25 13:37:26;;;;;;;1.23;0.50;;;;;;;;;;10408644;28;20368;-77
2023/08/25 13:42:27;;;;;;;0.63;0.50;;;;;;;;;;10414316;28;20223;-77
2023/08/25 13:47:29;;;;;;;0.77;0.50;;;;;;;;;;10421127;28;20211;-79
2023/08/25 13:52:30;;;;;;;0.63;0.50;;;;;;;;;;10404498;28;20382;-80
2023/08/25 13:57:31;;;;;;;0.70;0.70;;;;;;;;;;10420466;28;20310;-80
2023/08/25 14:02:32;;;;;;;3.45;0.70;;;;;;;;;;10420550;28;20273;-80
2023/08/25 14:07:35;;;;;;;0.50;0.50;;;;;;;;;;10390865;28;20250;-79
2023/08/25 14:12:38;;;;;;;0.50;0.50;;;;;;;;;;10422461;28;20662;-79
2023/08/25 14:17:39;;;;;;;1.75;0.60;;;;;;;;;;10427922;28;20365;-79
2023/08/25 14:22:40;;;;;;;1.20;0.60;;;;;;;;;;10420880;28;20242;-80
2023/08/25 14:27:41;;;;;;;0.55;0.55;;;;;;;;;;10417562;28;20223;-80
2023/08/25 14:32:42;;;;;;;0.60;0.60;;;;;;;;;;10409724;28;20214;-80
2023/08/25 14:37:43;;;;;;;0.47;0.47;;;;;;;;;;10413175;28;20214;-78
2023/08/25 14:42:46;;;;;;;0.50;0.50;;;;;;;;;;10404786;28;20271;-79
2023/08/25 14:47:47;;;;;;;2.90;0.65;;;;;;;;;;10408055;28;20671;-79
2023/08/25 14:52:51;;;;;;;1.05;0.65;;;;;;;;;;10414975;28;20796;-80
2023/08/25 14:57:52;;;;;;;0.70;0.70;;;;;;;;;;10410035;28;20219;-80
2023/08/25 15:02:54;;;;;;;0.40;0.40;;;;;;;;;;10422060;28;20232;-80
2023/08/25 15:07:58;;;;;;;0.57;0.57;;;;;;;;;;10425840;28;20302;-79
2023/08/25 15:12:59;;;;;;;0.63;0.30;;;;;;;;;;10409501;28;20215;-82
2023/08/25 15:18:00;;;;;;;1.95;0.60;;;;;;;;;;10397885;28;20297;-81
2023/08/25 15:23:03;;;;;;;0.60;0.60;;;;;;;;;;10400277;28;20250;-81
2023/08/25 15:28:04;;;;;;;0.40;0.40;;;;;;;;;;10424613;28;20215;-79
2023/08/25 15:33:05;;;;;;;1.05;0.43;;;;;;;;;;10432051;28;20654;-79
2023/08/25 15:38:10;;;;;;;1.00;1.00;;;;;;;;;;10414851;28;20227;-78
2023/08/25 15:43:11;;;;;;;0.50;0.50;;;;;;;;;;10409374;28;20361;-81
2023/08/25 15:48:14;;;;;;;0.60;0.60;;;;;;;;;;10413174;28;20626;-82
2023/08/25 15:53:15;;;;;;;0.80;0.80;;;;;;;;;;10426973;28;20218;-81
2023/08/25 15:58:17;;;;;;;0.93;0.90;;;;;;;;;;10431014;28;20598;-82
2023/08/25 16:03:18;;;;;;;0.52;0.52;;;;;;;;;;10424800;28;20310;-81
2023/08/25 16:08:19;;;;;;;0.50;0.50;;;;;;;;;;10421028;28;20867;-82
2023/08/25 16:13:20;;;;;;;1.02;0.70;;;;;;;;;;10430612;28;20625;-82
2023/08/25 16:18:22;;;;;;;0.85;0.85;;;;;;;;;;10419069;28;20232;-82
2023/08/25 16:23:23;;;;;;;2.70;1.00;;;;;;;;;;10405560;28;20226;-82
2023/08/25 16:28:24;;;;;;;0.80;0.80;;;;;;;;;;10423957;28;20218;-81
2023/08/25 16:33:25;;;;;;;0.68;0.65;;;;;;;;;;10406791;28;20263;-80
2023/08/25 16:38:27;;;;;;;0.88;0.60;;;;;;;;;;10420132;28;20211;-78
2023/08/25 16:43:28;;;;;;;1.23;0.90;;;;;;;;;;10421068;28;20280;-77
2023/08/25 16:48:30;;;;;;;1.40;1.08;;;;;;;;;;10406212;28;20728;-77
2023/08/25 16:53:31;;;;;;;1.63;1.52;;;;;;;;;;10405525;28;20808;-76
2023/08/25 16:58:32;;;;;;;2.05;1.83;;;;;;;;;;10383629;28;20219;-76
2023/08/25 17:03:33;;;;;;;1.00;1.00;;;;;;;;;;10410219;28;20888;-76
2023/08/25 17:08:34;;;;;;;3.88;1.02;;;;;;;;;;10394081;28;21062;-77
2023/08/25 17:13:35;;;;;;;1.13;1.00;;;;;;;;;;10378023;28;20230;-76
2023/08/25 17:18:36;;;;;;;1.05;0.98;;;;;;;;;;10396366;28;20222;-76
2023/08/25 17:23:38;;;;;;;1.10;1.10;;;;;;;;;;10395866;28;20688;-77
2023/08/25 17:28:39;;;;;;;1.13;1.13;;;;;;;;;;10394527;28;20218;-75
2023/08/25 17:33:41;;;;;;;1.35;1.27;;;;;;;;;;10400710;28;20218;-76
2023/08/25 17:38:42;;;;;;;1.10;1.10;;;;;;;;;;10390871;28;20218;-76
2023/08/25 17:43:43;;;;;;;1.00;1.00;;;;;;;;;;10396477;28;20711;-77
2023/08/25 17:48:44;;;;;;;0.93;0.93;;;;;;;;;;10381197;28;20305;-76
2023/08/25 17:53:45;;;;;;;1.20;1.20;;;;;;;;;;10400936;28;20745;-76
2023/08/25 17:58:46;;;;;;;1.20;1.08;;;;;;;;;;10400740;28;20788;-77
2023/08/25 18:03:47;;;;;;;1.50;1.40;;;;;;;;;;10397492;28;20223;-77
2023/08/25 18:08:48;;;;;;;1.33;1.33;;;;;;;;;;10380458;28;20264;-77
2023/08/25 18:13:49;;;;;;;4.00;1.88;;;;;;;;;;10386257;28;20234;-77
2023/08/25 18:18:51;;;;;;;1.38;1.38;;;;;;;;;;10387494;28;20210;-78
2023/08/25 18:23:52;;;;;;;1.35;1.35;;;;;;;;;;10386095;28;20217;-80
2023/08/25 18:28:53;;;;;;;1.48;1.38;;;;;;;;;;10388493;28;20293;-77
2023/08/25 18:33:54;;;;;;;0.80;0.80;;;;;;;;;;10403573;28;20218;-79
2023/08/25 18:38:55;;;;;;;0.80;0.80;;;;;;;;;;10395752;28;20223;-80
2023/08/25 18:43:56;;;;;;;0.95;0.70;;;;;;;;;;10394483;28;20682;-77
2023/08/25 18:48:57;;;;;;;0.50;0.50;;;;;;;;;;10406723;28;20217;-76
2023/08/25 18:53:58;;;;;;;0.30;0.30;;;;;;;;;;10392253;28;20276;-78
2023/08/25 18:59:00;;;;;;;0.40;0.40;;;;;;;;;;10379258;28;20226;-77
2023/08/25 19:04:01;;;;;;;0.75;0.40;;;;;;;;;;10396141;28;20250;-79
2023/08/25 19:09:06;;;;;;;0.20;0.20;;;;;;;;;;10411986;28;20213;-79
2023/08/25 19:14:07;;;;;;;0.20;0.20;;;;;;;;;;10390108;28;20234;-79
2023/08/25 19:19:09;;;;;;;0.30;0.30;;;;;;;;;;10404588;28;20229;-77
2023/08/25 19:24:10;;;;;;;0.20;0.20;;;;;;;;;;10402451;28;20844;-76
2023/08/25 19:29:11;;;;;;;2.38;0.20;;;;;;;;;;10383367;28;20215;-78
2023/08/25 19:34:12;;;;;;;0.20;0.20;;;;;;;;;;10402284;28;20246;-78
2023/08/25 19:39:13;;;;;;;0.45;0.15;;;;;;;;;;10385828;28;20306;-75
2023/08/25 19:44:15;;;;;;;0.30;0.30;;;;;;;;;;10397813;28;20221;-78
2023/08/25 19:49:16;;;;;;;0.47;0.20;;;;;;;;;;10401017;28;20217;-78
2023/08/25 19:54:17;;;;;;;0.32;0.32;;;;;;;;;;10402801;28;20236;-76
2023/08/25 19:59:18;;;;;;;1.17;0.35;;;;;;;;;;10386138;28;20243;-77
2023/08/25 20:04:23;;;;;;;0.30;0.30;;;;;;;;;;10403809;28;20226;-76
2023/08/25 20:09:24;;;;;;;0.30;0.30;;;;;;;;;;10406511;28;20218;-77
2023/08/25 20:14:25;;;;;;;0.40;0.40;;;;;;;;;;10399054;28;20255;-77
2023/08/25 20:19:27;;;;;;;0.30;0.30;;;;;;;;;;10400233;28;20231;-79
2023/08/25 20:24:28;;;;;;;0.52;0.52;;;;;;;;;;10399205;28;20696;-79
2023/08/25 20:29:29;;;;;;;0.40;0.40;;;;;;;;;;10404980;28;20219;-77
2023/08/25 20:34:30;;;;;;;1.02;0.30;;;;;;;;;;10412938;28;20229;-79
2023/08/25 20:39:31;;;;;;;0.35;0.35;;;;;;;;;;10419954;28;20234;-77
2023/08/25 20:44:32;;;;;;;3.03;0.50;;;;;;;;;;10408695;28;20214;-78
2023/08/25 20:49:33;;;;;;;0.30;0.30;;;;;;;;;;10409299;28;20211;-77
2023/08/25 20:54:34;;;;;;;0.40;0.32;;;;;;;;;;10410958;28;20210;-77
2023/08/25 20:59:35;;;;;;;0.45;0.45;;;;;;;;;;10408338;28;20316;-78
2023/08/25 21:04:37;;;;;;;1.20;0.40;;;;;;;;;;10420764;28;20202;-77
2023/08/25 21:09:38;;;;;;;1.05;0.38;;;;;;;;;;10409495;28;20207;-79
2023/08/25 21:14:39;;;;;;;0.85;0.40;;;;;;;;;;10412521;28;20924;-77
2023/08/25 21:19:40;;;;;;;0.40;0.40;;;;;;;;;;10407414;28;20222;-78
2023/08/25 21:24:41;;;;;;;1.33;0.57;;;;;;;;;;10415113;28;20271;-76
2023/08/25 21:29:42;;;;;;;0.40;0.40;;;;;;;;;;10410556;28;20214;-78
2023/08/25 21:34:43;;;;;;;0.50;0.50;;;;;;;;;;10413537;28;20695;-77
2023/08/25 21:39:44;;;;;;;0.40;0.40;;;;;;;;;;10399715;28;20223;-78
2023/08/25 21:44:45;;;;;;;0.50;0.50;;;;;;;;;;10402714;28;20235;-76
2023/08/25 21:49:46;;;;;;;0.50;0.50;;;;;;;;;;10416897;28;20221;-77
2023/08/25 21:54:48;;;;;;;1.00;0.52;;;;;;;;;;10409290;28;20298;-77
2023/08/25 21:59:50;;;;;;;0.70;0.70;;;;;;;;;;10410268;28;20226;-78
2023/08/25 22:04:51;;;;;;;2.15;0.60;;;;;;;;;;10402661;28;20716;-76
2023/08/25 22:09:53;;;;;;;0.50;0.50;;;;;;;;;;10393191;28;20206;-77
2023/08/25 22:14:54;;;;;;;0.75;0.57;;;;;;;;;;10415066;28;20753;-79
2023/08/25 22:19:55;;;;;;;1.40;0.40;;;;;;;;;;10395112;28;20636;-77
2023/08/25 22:24:56;;;;;;;1.85;0.70;;;;;;;;;;10392793;28;20218;-78
2023/08/25 22:29:57;;;;;;;0.40;0.40;;;;;;;;;;10402188;28;20586;-79
2023/08/25 22:34:58;;;;;;;1.23;0.88;;;;;;;;;;10410689;28;20222;-77
2023/08/25 22:39:59;;;;;;;0.30;0.30;;;;;;;;;;10416718;28;20260;-78
2023/08/25 22:45:00;;;;;;;0.30;0.30;;;;;;;;;;10407320;28;20225;-76
2023/08/25 22:50:01;;;;;;;0.55;0.30;;;;;;;;;;10421700;28;20215;-78
2023/08/25 22:55:03;;;;;;;0.38;0.38;;;;;;;;;;10399302;28;20214;-76
2023/08/25 23:00:05;;;;;;;2.25;0.70;;;;;;;;;;10406465;28;20716;-76
2023/08/25 23:05:06;;;;;;;1.48;0.65;;;;;;;;;;10421212;28;20276;-76
2023/08/25 23:10:07;;;;;;;1.45;0.60;;;;;;;;;;10414014;28;20194;-75
2023/08/25 23:15:08;;;;;;;1.10;0.60;;;;;;;;;;10395222;28;20338;-77
2023/08/25 23:20:10;;;;;;;0.65;0.65;;;;;;;;;;10417348;28;20187;-76
2023/08/25 23:25:11;;;;;;;3.22;0.50;;;;;;;;;;10404368;28;20217;-78
2023/08/25 23:30:12;;;;;;;0.80;0.50;;;;;;;;;;10413753;28;20215;-80
2023/08/25 23:35:13;;;;;;;0.63;0.40;;;;;;;;;;10412037;28;20633;-78
2023/08/25 23:40:14;;;;;;;0.50;0.50;;;;;;;;;;10411723;28;20211;-79
2023/08/25 23:45:16;;;;;;;0.68;0.52;;;;;;;;;;10412837;28;20242;-81
2023/08/25 23:50:17;;;;;;;0.95;0.50;;;;;;;;;;10429937;28;20191;-79
2023/08/25 23:55:18;;;;;;;0.65;0.65;;;;;;;;;;10393016;28;20207;-77
